METAR Reports LIMOGES - BRIVE - BERGERAC - ANGOULEME - CLERMOND-FERRAND - AURILLAC

 

LFBL - Aeroport de Limoges-Bellegarde
Distance from station: NE 45km
Mise à jour: 02/02/2023 13:00
Couvert
Couvert
 Wind from N
Vent: N 13 km/h
Température: 7°C
Wind Chill: 5°C
Pt de rosée: 1°C
Humidité: 66%
Baromètre: 1034 hPa
Clouds: Couvert
Visibility: 10 km
Cloud details: Couvert 914 m
2023/02/02 12:00 LFBL 021200Z AUTO 36007KT 330V040 9999 OVC030 07/01 Q1034 NOSIG
LFSL - Aeroport de Brive-Vallee de la Dordogne
Distance from station: S 40km
Mise à jour: 02/02/2023 13:00
Couvert
Couvert
 Wind from NNO
Vent: NNO 19 km/h
Température: 8°C
Wind Chill: 4°C
Pt de rosée: 2°C
Humidité: 66%
Baromètre: 1033 hPa
Clouds: Couvert
Visibility: 10 km
Cloud details: Couvert 1067 m
2023/02/02 12:00 LFSL 021200Z AUTO 33010KT 9999 OVC035 08/02 Q1033 NOSIG
 
LFBE - Aeroport de Bergerac-Dordogne-Perigord
Distance from station: SO 150km
Mise à jour: 02/02/2023 13:00
Partiellement nuageux
Partiellement nuageux
 Wind from N
Vent: N 11 km/h
Température: 11°C
Pt de rosée: 2°C
Humidité: 54%
Baromètre: 1035 hPa
Clouds: Partiellement nuageux
Visibility: 10 km
Cloud details: Partiellement nuageux 1311 m
2023/02/02 12:00 LFBE 021200Z AUTO 35006KT 240V030 9999 SCT043 11/02 Q1035 NOSIG
LFBU - Aeroport international Angouleme-Cognac
Distance from station: SSO 120km
Mise à jour: 02/02/2023 13:00
Couvert
Couvert
 Wind from NNO
Vent: NNO 7 km/h
Température: 10°C
Wind Chill: 9°C
Pt de rosée: 3°C
Humidité: 62%
Baromètre: 1035 hPa
Clouds: Couvert
Visibility: 10 km
Cloud details: Couvert 1311 m
2023/02/02 12:00 LFBU 021200Z AUTO 34004KT 300V010 9999 OVC043 10/03 Q1035 NOSIG
 
LFLC - Aeroport de Clermont-Ferrand Auvergne
Distance from station: E 200km
Mise à jour: 02/02/2023 13:00
Couvert
Couvert
 Wind from NNE
Vent: NNE 11 km/h
Température: 8°C
Wind Chill: 6°C
Pt de rosée: 1°C
Humidité: 62%
Baromètre: 1033 hPa
Clouds: Couvert
Visibility: 10 km
Cloud details: Partiellement nuageux 1036 m
Couvert 1219 m
2023/02/02 12:00 LFLC 021200Z AUTO 02006KT 340V050 9999 SCT034 OVC040 08/01 Q1033 NOSIG
LFLW - Aeroport Aurillac
Distance from station: SE 120km
Mise à jour: 02/02/2023 13:00
Clair
Clair
 Wind from NNO
Vent: NNO 19 km/h
Température: 7°C
Wind Chill: 4°C
Pt de rosée: 0°C
Humidité: 61%
Baromètre: 1031 hPa
Résumé: Clair
Visibility: greater than 10 km
2023/02/02 12:00 LFLW 021200Z AUTO 34010KT 310V020 CAVOK 07/M00 Q1031 NOSIG